Terminal Aerodrome Forecast
Issued by NWS

Home | Current Version | Previous Version | Text Only | Print | Product List | Glossary On
Versions: 1 2 3 4 5 6 7 8 9 10 11 12 13 14 15 16
786
FTUS43 KPAH 240906 AAA
TAFCGI
TAF AMD
KCGI 240906Z 2409/2506 18012G20KT P6SM SCT050 BKN150
     FM241500 21015G25KT P6SM SCT030 BKN100
     FM242300 29012KT P6SM SKC=

USA.gov is the U.S. government's official web portal to all federal, state and local government web resources and services.